Elk Mountain, WY (82324)

7:05 PM MST on February 08, 2016 (GMT -0700)
WYDOT | | Change Station
CLOSE
Current Station
Personal Weather Station
Location: Elk Mountain, WY
Elevation: 7781 ft
Nearby Weather Stations

Elev 7781 ft 41.59 °N, 106.18 °W | Updated 25 minutes ago

Clear
Clear
31.0 °F
Feels Like 19 °F
N
20.0
Wind Variable Wind from WSW
Gusts 26.0 mph

Today
High -- | Low -- °F
--% Chance of Precip.
Yesterday
High -- | Low -- °F
Precip. -- in
Pressure 30.38 in
Visibility 10.0 miles
Clouds Clear
Windchill 19 °F
Dew Point 19.0 °F
Humidity 60%
Rainfall in
Snow Depth Not available.
7:10 AM 5:29 PM
New Moon, 0% visible
METAR KEHY 090155Z AUTO 26019G24KT 10SM CLR 00/M06 A3038 RMK AO2
Pressure 30.38 in
Visibility 10.0 miles
Clouds Clear
Windchill 19 °F
Dew Point 19.0 °F
Humidity 60%
Rainfall in
Snow Depth Not available.
7:10 AM 5:29 PM
New Moon, 0% visible
METAR KEHY 090155Z AUTO 26019G24KT 10SM CLR 00/M06 A3038 RMK AO2

10-Day Weather Forecast

Almanac

Astronomy

Feb. 08, 2016 Rise Set
Actual Time
Civil Twilight
Nautical Twilight
Astronomical Twilight
Moon
Length of Visible Light
Length of Day
Tomorrow will be .
, % of the Moon is Illuminated

Today's Extremes

State Highs State Lows

Community

WunderPhotos

Upload Photos

1,891,527 photos uploaded!

WunderBlog® & News

Nearby

Air Quality

  Air Quality AQ Index Pollutant
Not available.

Snow Depth

Station Depth Elevation

Earthquake Activity

City Distance Mag. Time & Date
Minimum magnitude displayed is 2.5.

Coastal Water Temperatures

Place Temperature

Stations

Nearby Weather Stations

Station Location Temp. Windchill Dew Point Humidity Wind Precip. Elev Updated Type
                   

Watches & Warnings

There are currently no watches in effect.